createdAt,value
2023-04-06T00:05:07.754Z,69.00
2023-04-06T00:14:38.255Z,70.04
2023-04-06T00:24:11.333Z,71.46
2023-04-06T00:33:45.114Z,71.54
2023-04-06T00:43:19.300Z,71.81
2023-04-06T00:52:49.475Z,70.63
2023-04-06T01:02:22.491Z,71.09
2023-04-06T01:11:57.295Z,69.42
2023-04-06T01:21:29.203Z,71.06
2023-04-06T01:31:01.950Z,71.94
2023-04-06T01:40:34.814Z,73.47
2023-04-06T01:50:04.650Z,74.90
2023-04-06T01:59:37.312Z,76.57
2023-04-06T02:09:10.029Z,78.26
2023-04-06T02:18:44.353Z,79.41
2023-04-06T02:28:18.486Z,80.37
2023-04-06T02:37:50.066Z,80.23
2023-04-06T02:47:18.521Z,81.24
2023-04-06T02:56:53.034Z,81.93
2023-04-06T03:06:25.028Z,81.48
2023-04-06T03:15:57.738Z,83.22
2023-04-06T03:25:30.389Z,82.91
2023-04-06T03:35:01.074Z,83.63
2023-04-06T03:44:34.170Z,83.88
2023-04-06T03:54:08.249Z,83.56
2023-04-06T04:03:41.588Z,81.83
2023-04-06T04:13:12.253Z,80.94
2023-04-06T04:22:45.353Z,80.49
2023-04-06T04:32:15.586Z,84.75
2023-04-06T04:41:48.339Z,85.34
2023-04-06T04:51:21.322Z,86.16
2023-04-06T05:00:54.650Z,87.86
2023-04-06T05:10:27.594Z,88.21
2023-04-06T05:20:01.077Z,88.69
2023-04-06T05:29:33.883Z,90.27
2023-04-06T05:39:07.335Z,90.69
2023-04-06T05:48:41.057Z,92.14
2023-04-06T05:58:14.283Z,92.61
2023-04-06T06:07:48.003Z,94.01
2023-04-06T06:17:21.611Z,94.48
2023-04-06T06:26:56.602Z,93.66
2023-04-06T06:36:28.859Z,92.57
2023-04-06T06:46:04.159Z,91.88
2023-04-06T06:55:38.056Z,92.53
2023-04-06T07:05:16.499Z,91.66
2023-04-06T07:14:42.596Z,90.28
2023-04-06T07:24:16.894Z,87.51
2023-04-06T07:33:51.575Z,86.86
2023-04-06T07:43:29.493Z,84.62
2023-04-06T07:53:02.170Z,78.45
2023-04-06T07:54:06.138Z,77.68
2023-04-06T08:03:38.366Z,70.37
2023-04-06T08:04:40.709Z,70.26
2023-04-06T08:05:45.665Z,67.86
2023-04-06T08:06:49.606Z,66.42
2023-04-06T08:07:51.817Z,67.07
2023-04-06T08:08:54.229Z,66.56
2023-04-06T08:09:56.653Z,66.26
2023-04-06T08:11:02.151Z,65.74
2023-04-06T08:12:02.963Z,65.56
2023-04-06T08:21:37.106Z,66.18
2023-04-06T08:22:41.012Z,66.91
2023-04-06T08:23:43.321Z,67.10
2023-04-06T08:24:45.802Z,67.95
2023-04-06T08:25:48.209Z,66.84
2023-04-06T08:26:52.183Z,65.94
2023-04-06T08:27:56.065Z,64.91
2023-04-06T08:29:00.182Z,63.37
2023-04-06T08:30:02.492Z,63.89
2023-04-06T08:31:04.929Z,62.42
2023-04-06T08:32:07.378Z,62.76
2023-04-06T08:33:11.513Z,61.96
2023-04-06T08:34:14.177Z,61.96
2023-04-06T08:35:16.136Z,61.51
2023-04-06T08:36:21.135Z,62.66
2023-04-06T08:37:24.970Z,62.61
2023-04-06T08:38:28.843Z,63.51
2023-04-06T08:39:31.127Z,62.64
2023-04-06T08:40:35.170Z,62.66
2023-04-06T08:41:39.085Z,62.67
2023-04-06T08:42:42.966Z,62.63
2023-04-06T08:43:45.245Z,61.65
2023-04-06T08:44:49.233Z,63.11
2023-04-06T08:45:51.540Z,62.18
2023-04-06T08:46:54.074Z,63.02
2023-04-06T08:47:56.355Z,61.46
2023-04-06T08:49:00.457Z,61.06
2023-04-06T08:50:02.717Z,60.57
2023-04-06T08:51:06.731Z,60.51
2023-04-06T08:52:09.104Z,60.29
2023-04-06T08:53:11.516Z,61.05
2023-04-06T08:54:13.954Z,62.13
2023-04-06T08:55:16.471Z,60.58
2023-04-06T08:56:20.536Z,58.70
2023-04-06T08:57:22.809Z,57.26
2023-04-06T08:58:35.518Z,56.63
2023-04-06T08:59:29.304Z,56.98
2023-04-06T09:00:31.551Z,57.11
2023-04-06T09:01:35.628Z,56.59
2023-04-06T09:02:37.976Z,57.21
2023-04-06T09:03:41.860Z,56.20
2023-04-06T09:04:43.805Z,56.55
2023-04-06T09:05:47.803Z,56.88
2023-04-06T09:06:51.737Z,57.61
2023-04-06T09:07:55.648Z,56.51
2023-04-06T09:08:59.581Z,55.78
2023-04-06T09:10:03.490Z,56.63
2023-04-06T09:11:05.795Z,55.77
2023-04-06T09:12:08.230Z,55.11
2023-04-06T09:13:10.666Z,55.69
2023-04-06T09:14:14.779Z,55.25
2023-04-06T09:15:18.702Z,55.21
2023-04-06T09:16:20.981Z,54.81
2023-04-06T09:17:23.450Z,54.87
2023-04-06T09:18:27.426Z,54.16
2023-04-06T09:19:29.825Z,54.59
2023-04-06T09:20:32.234Z,53.97
2023-04-06T09:21:34.638Z,55.12
2023-04-06T09:22:38.644Z,55.35
2023-04-06T09:23:42.541Z,54.50
2023-04-06T09:24:44.873Z,55.84
2023-04-06T09:25:47.343Z,56.16
2023-04-06T09:35:21.999Z,54.91
2023-04-06T09:36:24.277Z,55.02
2023-04-06T09:37:26.729Z,55.64
2023-04-06T09:38:29.201Z,55.50
2023-04-06T09:39:31.656Z,54.81
2023-04-06T09:40:35.677Z,54.68
2023-04-06T09:41:38.151Z,54.05
2023-04-06T09:42:42.183Z,53.88
2023-04-06T09:43:46.117Z,53.83
2023-04-06T09:44:48.356Z,53.33
2023-04-06T09:45:50.858Z,53.33
2023-04-06T09:47:00.113Z,51.76
2023-04-06T09:47:57.565Z,52.37
2023-04-06T09:48:59.750Z,50.91
2023-04-06T09:50:02.242Z,52.03
2023-04-06T09:51:04.733Z,50.78
2023-04-06T09:52:08.726Z,51.29
2023-04-06T09:53:11.094Z,52.13
2023-04-06T09:54:15.088Z,52.20
2023-04-06T09:55:17.472Z,50.31
2023-04-06T09:56:21.501Z,49.21
2023-04-06T09:57:23.877Z,48.97
2023-04-06T09:58:27.950Z,49.84
2023-04-06T09:59:30.256Z,52.84
2023-04-06T10:00:33.760Z,52.46
2023-04-06T10:01:36.077Z,52.27
2023-04-06T10:02:40.231Z,53.31
2023-04-06T10:03:42.630Z,52.01
2023-04-06T10:04:44.923Z,52.29
2023-04-06T10:05:47.409Z,50.12
2023-04-06T10:06:49.857Z,49.69
2023-04-06T10:07:59.995Z,51.48
2023-04-06T10:08:54.684Z,51.73
2023-04-06T10:09:57.173Z,51.33
2023-04-06T10:11:01.330Z,51.24
2023-04-06T10:12:06.206Z,51.68
2023-04-06T10:13:08.435Z,49.93
2023-04-06T10:14:10.887Z,50.13
2023-04-06T10:15:13.311Z,49.71
2023-04-06T10:16:17.411Z,49.35
2023-04-06T10:17:19.711Z,48.99
2023-04-06T10:18:23.823Z,50.33
2023-04-06T10:19:26.102Z,49.89
2023-04-06T10:20:28.568Z,49.34
2023-04-06T10:21:30.977Z,49.30
2023-04-06T10:22:35.060Z,49.50
2023-04-06T10:23:38.977Z,48.99
2023-04-06T10:24:42.877Z,49.53
2023-04-06T10:25:45.218Z,47.59
2023-04-06T10:26:47.704Z,48.33
2023-04-06T10:27:50.080Z,49.28
2023-04-06T10:28:54.157Z,49.75
2023-04-06T10:29:56.527Z,48.67
2023-04-06T10:30:58.915Z,48.39
2023-04-06T10:32:01.441Z,49.47
2023-04-06T10:33:05.509Z,48.19
2023-04-06T10:34:07.928Z,48.94
2023-04-06T10:35:10.219Z,47.88
2023-04-06T10:36:12.657Z,47.89
2023-04-06T10:37:15.068Z,49.15
2023-04-06T10:38:17.548Z,48.87
2023-04-06T10:39:20.027Z,49.09
2023-04-06T10:40:24.028Z,47.35
2023-04-06T10:41:26.378Z,47.33
2023-04-06T10:42:28.825Z,47.15
2023-04-06T10:43:31.266Z,47.66
2023-04-06T10:44:36.318Z,48.18
2023-04-06T10:45:40.240Z,47.83
2023-04-06T10:46:42.500Z,47.74
2023-04-06T10:47:46.634Z,49.37
2023-04-06T10:48:48.938Z,46.80
2023-04-06T10:49:51.469Z,46.91
2023-04-06T10:50:53.958Z,46.93
2023-04-06T10:51:56.350Z,46.82
2023-04-06T10:52:58.871Z,45.81
2023-04-06T10:54:02.949Z,47.49
2023-04-06T10:55:06.834Z,46.25
2023-04-06T10:56:09.167Z,46.15
2023-04-06T10:57:16.599Z,47.59
2023-04-06T10:58:21.638Z,45.02
2023-04-06T10:59:23.985Z,45.81
2023-04-06T11:00:33.415Z,45.86
2023-04-06T11:01:28.805Z,44.95
2023-04-06T11:02:36.185Z,44.54
2023-04-06T11:03:38.347Z,45.16
2023-04-06T11:04:40.810Z,45.08
2023-04-06T11:05:43.287Z,45.41
2023-04-06T11:06:45.757Z,45.92
2023-04-06T11:07:48.217Z,45.15
2023-04-06T11:08:50.680Z,45.05
2023-04-06T11:10:04.757Z,45.44
2023-04-06T11:10:55.551Z,46.19
2023-04-06T11:11:58.149Z,45.86
2023-04-06T11:13:00.512Z,44.74
2023-04-06T11:14:03.005Z,44.74
2023-04-06T11:15:07.105Z,45.85
2023-04-06T11:16:09.359Z,46.23
2023-04-06T11:17:11.817Z,43.95
2023-04-06T11:18:15.889Z,44.96
2023-04-06T11:19:18.199Z,45.07
2023-04-06T11:20:20.688Z,43.22
2023-04-06T11:21:23.183Z,45.01
2023-04-06T11:22:25.633Z,43.49
2023-04-06T11:23:28.119Z,44.38
2023-04-06T11:24:30.554Z,44.22
2023-04-06T11:25:33.286Z,43.53
2023-04-06T11:26:37.291Z,43.57
2023-04-06T11:27:41.218Z,43.59
2023-04-06T11:28:43.566Z,42.03
2023-04-06T11:29:46.009Z,42.00
2023-04-06T11:30:48.529Z,43.54
2023-04-06T11:31:50.935Z,41.64
2023-04-06T11:32:53.446Z,41.81
2023-04-06T11:33:55.909Z,43.17
2023-04-06T11:34:58.468Z,43.76
2023-04-06T11:36:00.956Z,42.48
2023-04-06T11:37:04.958Z,42.72
2023-04-06T11:38:07.223Z,42.10
2023-04-06T11:39:12.278Z,42.19
2023-04-06T11:40:14.598Z,42.07
2023-04-06T11:41:17.070Z,42.90
2023-04-06T11:42:19.500Z,42.56
2023-04-06T11:43:21.979Z,41.90
2023-04-06T11:44:24.447Z,40.71
2023-04-06T11:45:26.945Z,41.87
2023-04-06T11:46:31.065Z,41.50
2023-04-06T11:47:33.346Z,41.81
2023-04-06T11:48:37.480Z,41.20
2023-04-06T11:49:41.402Z,42.45
2023-04-06T11:50:45.313Z,41.34
2023-04-06T11:51:49.231Z,40.67
2023-04-06T11:52:53.168Z,41.09
2023-04-06T11:53:57.127Z,43.56
2023-04-06T11:54:59.390Z,42.44
2023-04-06T11:56:01.877Z,41.11
2023-04-06T11:57:05.995Z,40.92
2023-04-06T11:58:09.958Z,40.87
2023-04-06T11:59:12.342Z,40.51
2023-04-06T12:00:14.865Z,40.68
2023-04-06T12:01:17.237Z,40.98
2023-04-06T12:02:19.705Z,40.50
2023-04-06T12:03:23.589Z,40.49
2023-04-06T12:04:27.940Z,42.11
2023-04-06T12:05:30.451Z,41.01
2023-04-06T12:06:33.307Z,40.43
2023-04-06T12:07:35.870Z,41.27
2023-04-06T12:08:40.296Z,41.23
2023-04-06T12:09:44.308Z,39.25
2023-04-06T12:10:48.285Z,39.21
2023-04-06T12:11:50.665Z,39.58
2023-04-06T12:12:54.903Z,40.17
2023-04-06T12:14:00.132Z,39.15
2023-04-06T12:23:29.653Z,39.45
2023-04-06T12:24:33.780Z,39.42
2023-04-06T12:25:36.132Z,37.28
2023-04-06T12:26:38.608Z,38.58
2023-04-06T12:27:42.650Z,37.58
2023-04-06T12:28:45.018Z,39.83
2023-04-06T12:29:47.523Z,41.12
2023-04-06T12:30:49.984Z,37.98
2023-04-06T12:31:54.172Z,37.28
2023-04-06T12:32:56.506Z,37.79
2023-04-06T12:34:00.530Z,38.27
2023-04-06T12:35:04.447Z,38.19
2023-04-06T12:36:09.476Z,37.74
2023-04-06T12:37:13.424Z,37.81
2023-04-06T12:38:15.657Z,37.77
2023-04-06T12:39:19.298Z,36.07
2023-04-06T12:40:20.519Z,35.92
2023-04-06T12:41:25.560Z,37.00
2023-04-06T12:42:29.432Z,38.23
2023-04-06T12:43:33.351Z,38.08
2023-04-06T12:44:37.285Z,36.97
2023-04-06T12:45:39.642Z,37.38
2023-04-06T12:46:43.705Z,37.37
2023-04-06T12:47:46.106Z,36.69
2023-04-06T12:48:48.615Z,37.27
2023-04-06T12:49:51.090Z,37.32
2023-04-06T12:50:53.632Z,38.36
2023-04-06T12:51:57.665Z,35.56
2023-04-06T12:53:01.558Z,35.98
2023-04-06T12:54:05.468Z,37.26
2023-04-06T12:55:07.915Z,36.73
2023-04-06T12:56:10.369Z,37.10
2023-04-06T12:57:12.883Z,36.41
2023-04-06T12:58:15.334Z,37.56
2023-04-06T12:59:17.902Z,38.22
2023-04-06T13:00:20.406Z,37.29
2023-04-06T13:01:24.504Z,35.94
2023-04-06T13:02:26.733Z,36.08
2023-04-06T13:03:30.893Z,36.76
2023-04-06T13:04:33.144Z,36.67
2023-04-06T13:05:35.643Z,37.17
2023-04-06T13:06:40.710Z,35.96
2023-04-06T13:07:43.024Z,37.37
2023-04-06T13:08:45.509Z,35.65
2023-04-06T13:09:49.544Z,36.35
2023-04-06T13:10:53.513Z,36.64
2023-04-06T13:11:55.796Z,36.74
2023-04-06T13:12:58.296Z,36.08
2023-04-06T13:14:00.765Z,38.15
2023-04-06T13:15:03.277Z,36.59
2023-04-06T13:16:05.702Z,36.56
2023-04-06T13:17:08.183Z,35.61
2023-04-06T13:18:12.262Z,36.07
2023-04-06T13:19:14.548Z,37.48
2023-04-06T13:20:17.061Z,36.27
2023-04-06T13:21:19.549Z,36.92
2023-04-06T13:22:23.569Z,34.72
2023-04-06T13:23:25.906Z,34.98
2023-04-06T13:24:29.901Z,34.76
2023-04-06T13:25:32.212Z,34.79
2023-04-06T13:26:34.695Z,35.06
2023-04-06T13:27:37.192Z,35.08
2023-04-06T13:28:39.848Z,36.89
2023-04-06T13:29:43.761Z,36.16
2023-04-06T13:30:46.083Z,34.63
2023-04-06T13:31:50.176Z,34.81
2023-04-06T13:32:52.525Z,35.13
2023-04-06T13:33:54.990Z,35.38
2023-04-06T13:35:00.011Z,36.76
2023-04-06T13:36:02.333Z,35.59
2023-04-06T13:37:06.424Z,35.58
2023-04-06T13:38:10.404Z,36.79
2023-04-06T13:39:12.778Z,36.81
2023-04-06T13:40:15.207Z,37.09
2023-04-06T13:41:17.603Z,35.27
2023-04-06T13:42:21.638Z,36.12
2023-04-06T13:43:25.593Z,35.22
2023-04-06T13:44:27.962Z,34.73
2023-04-06T13:45:30.412Z,35.47
2023-04-06T13:46:32.936Z,36.01
2023-04-06T13:47:42.015Z,35.50
2023-04-06T13:48:39.262Z,35.01
2023-04-06T13:49:41.744Z,34.68
2023-04-06T13:50:45.761Z,33.27
2023-04-06T13:51:48.055Z,33.04
2023-04-06T13:52:52.070Z,33.28
2023-04-06T13:53:54.408Z,33.45
2023-04-06T13:54:56.916Z,33.30
2023-04-06T13:56:00.992Z,32.42
2023-04-06T13:57:03.303Z,33.29
2023-04-06T13:58:07.411Z,33.07
2023-04-06T13:59:09.773Z,32.93
2023-04-06T14:00:12.369Z,33.08
2023-04-06T14:01:16.406Z,33.14
2023-04-06T14:02:18.803Z,33.32
2023-04-06T14:03:22.879Z,33.43
2023-04-06T14:04:25.032Z,33.56
2023-04-06T14:05:27.516Z,33.24
2023-04-06T14:06:32.116Z,32.19
2023-04-06T14:07:35.497Z,32.28
2023-04-06T14:08:37.826Z,32.15
2023-04-06T14:09:40.203Z,31.54
2023-04-06T14:10:42.696Z,32.67
2023-04-06T14:11:45.164Z,32.29
2023-04-06T14:12:49.272Z,34.02
2023-04-06T14:13:51.573Z,33.53
2023-04-06T14:14:55.632Z,33.06
2023-04-06T14:15:57.993Z,32.51
2023-04-06T14:17:00.558Z,33.28
2023-04-06T14:18:03.016Z,32.79
2023-04-06T14:19:05.366Z,33.79
2023-04-06T14:20:07.821Z,33.83
2023-04-06T14:21:10.329Z,33.20
2023-04-06T14:22:12.777Z,33.59
2023-04-06T14:23:15.257Z,33.42
2023-04-06T14:24:17.727Z,32.85
2023-04-06T14:25:20.178Z,34.38
2023-04-06T14:26:24.285Z,32.50
2023-04-06T14:27:26.650Z,33.06
2023-04-06T14:28:29.055Z,33.39
2023-04-06T14:29:33.142Z,33.51
2023-04-06T14:30:35.463Z,33.71
2023-04-06T14:31:37.900Z,33.98
2023-04-06T14:32:40.374Z,34.20
2023-04-06T14:33:43.108Z,33.21
2023-04-06T14:34:45.290Z,33.48
2023-04-06T14:35:49.275Z,34.80
2023-04-06T14:36:51.656Z,33.90
2023-04-06T14:37:54.091Z,34.43
2023-04-06T14:38:58.178Z,35.70
2023-04-06T14:40:02.126Z,35.49
2023-04-06T14:41:04.392Z,35.16
2023-04-06T14:42:06.861Z,35.47
2023-04-06T14:43:10.842Z,35.66
2023-04-06T14:44:13.311Z,35.81
2023-04-06T14:45:15.621Z,36.43
2023-04-06T14:46:18.107Z,35.97
2023-04-06T14:47:20.515Z,36.13
2023-04-06T14:48:22.967Z,36.48
2023-04-06T14:49:25.479Z,36.79
2023-04-06T14:50:29.658Z,36.31
2023-04-06T14:51:33.482Z,35.62
2023-04-06T14:52:35.837Z,35.93
2023-04-06T14:53:38.309Z,35.55
2023-04-06T14:54:40.780Z,36.09
2023-04-06T14:55:43.313Z,36.82
2023-04-06T14:56:45.703Z,36.66
2023-04-06T14:57:48.176Z,35.12
2023-04-06T14:58:52.306Z,34.87
2023-04-06T14:59:56.228Z,35.09
2023-04-06T15:00:58.479Z,35.32
2023-04-06T15:02:01.017Z,35.89
2023-04-06T15:03:03.486Z,35.47
2023-04-06T15:04:07.509Z,35.76
2023-04-06T15:05:11.365Z,36.44
2023-04-06T15:06:14.894Z,36.45
2023-04-06T15:07:17.211Z,37.08
2023-04-06T15:08:19.640Z,36.16
2023-04-06T15:09:22.094Z,36.56
2023-04-06T15:10:24.622Z,36.31
2023-04-06T15:11:27.042Z,36.47
2023-04-06T15:12:29.519Z,36.54
2023-04-06T15:13:31.956Z,36.88
2023-04-06T15:14:35.988Z,36.51
2023-04-06T15:15:38.400Z,36.85
2023-04-06T15:16:40.848Z,36.44
2023-04-06T15:17:43.350Z,36.17
2023-04-06T15:18:45.754Z,36.75
2023-04-06T15:19:48.339Z,36.65
2023-04-06T15:20:51.752Z,36.77
2023-04-06T15:21:54.167Z,36.72
2023-04-06T15:22:56.567Z,36.89
2023-04-06T15:24:00.642Z,37.54
2023-04-06T15:25:02.984Z,37.17
2023-04-06T15:26:08.082Z,37.71
2023-04-06T15:27:10.339Z,37.70
2023-04-06T15:28:12.844Z,37.02
2023-04-06T15:29:16.883Z,36.74
2023-04-06T15:30:20.899Z,36.74
2023-04-06T15:31:36.432Z,36.85
2023-04-06T15:32:28.851Z,37.19
2023-04-06T15:33:31.077Z,37.36
2023-04-06T15:34:33.541Z,37.42
2023-04-06T15:35:37.528Z,37.95
2023-04-06T15:36:41.632Z,37.92
2023-04-06T15:37:45.391Z,37.83
2023-04-06T15:38:47.650Z,37.94
2023-04-06T15:39:50.112Z,38.01
2023-04-06T15:40:52.547Z,37.66
2023-04-06T15:41:55.033Z,38.09
2023-04-06T15:42:59.031Z,37.96
2023-04-06T15:44:01.429Z,38.77
2023-04-06T15:45:03.858Z,38.36
2023-04-06T15:47:08.800Z,38.87
2023-04-06T15:48:12.818Z,38.69
2023-04-06T15:49:15.184Z,38.63
2023-04-06T15:50:17.624Z,38.66
2023-04-06T15:51:21.674Z,38.72
2023-04-06T15:52:25.845Z,38.46
2023-04-06T15:53:29.751Z,38.72
2023-04-06T15:54:32.110Z,39.83
2023-04-06T15:55:36.230Z,39.03
2023-04-06T15:56:38.531Z,39.46
2023-04-06T15:57:42.589Z,38.84
2023-04-06T15:58:46.687Z,39.50
2023-04-06T15:59:50.389Z,38.94
2023-04-06T16:00:52.691Z,39.73
2023-04-06T16:01:56.744Z,40.04
2023-04-06T16:03:00.879Z,40.41
2023-04-06T16:04:04.655Z,40.41
2023-04-06T16:05:06.922Z,40.10
2023-04-06T16:06:09.445Z,40.63
2023-04-06T16:07:13.407Z,40.73
2023-04-06T16:08:17.262Z,41.66
2023-04-06T16:09:21.206Z,41.72
2023-04-06T16:10:23.446Z,41.55
2023-04-06T16:11:25.920Z,41.96
2023-04-06T16:12:30.034Z,42.07
2023-04-06T16:13:32.205Z,42.87
2023-04-06T16:14:34.724Z,43.01
2023-04-06T16:15:37.152Z,43.06
2023-04-06T16:16:39.586Z,43.05
2023-04-06T16:17:42.121Z,43.32
2023-04-06T16:18:46.176Z,43.68
2023-04-06T16:19:48.413Z,43.82
2023-04-06T16:20:52.421Z,43.21
2023-04-06T16:21:54.791Z,42.65
2023-04-06T16:22:57.287Z,42.63
2023-04-06T16:24:00.153Z,43.05
2023-04-06T16:25:03.699Z,43.63
2023-04-06T16:26:06.029Z,44.13
2023-04-06T16:27:08.443Z,43.66
2023-04-06T16:28:12.562Z,43.96
2023-04-06T16:29:14.909Z,43.58
2023-04-06T16:30:17.327Z,44.21
2023-04-06T16:31:21.471Z,44.81
2023-04-06T16:32:23.667Z,44.37
2023-04-06T16:33:26.144Z,44.24
2023-04-06T16:34:30.199Z,44.67
2023-04-06T16:35:32.595Z,45.12
2023-04-06T16:36:34.968Z,45.80
2023-04-06T16:37:37.386Z,46.15
2023-04-06T16:38:39.801Z,46.08
2023-04-06T16:39:42.229Z,46.52
2023-04-06T16:40:44.707Z,46.38
2023-04-06T16:41:47.116Z,47.17
2023-04-06T16:42:51.212Z,46.71
2023-04-06T16:43:55.164Z,46.36
2023-04-06T16:44:57.503Z,46.69
2023-04-06T16:46:01.557Z,47.20
2023-04-06T16:47:03.927Z,47.28
2023-04-06T16:48:07.341Z,47.19
2023-04-06T16:49:09.777Z,47.05
2023-04-06T16:50:13.863Z,47.01
2023-04-06T16:51:17.885Z,47.03
2023-04-06T16:52:21.732Z,47.14
2023-04-06T16:53:24.074Z,47.58
2023-04-06T16:54:26.490Z,47.76
2023-04-06T16:55:28.986Z,47.42
2023-04-06T16:56:31.432Z,47.57
2023-04-06T16:57:33.802Z,47.59
2023-04-06T16:58:36.337Z,47.96
2023-04-06T16:59:38.713Z,48.49
2023-04-06T17:00:41.153Z,48.99
2023-04-06T17:01:45.304Z,48.90
2023-04-06T17:02:49.175Z,48.38
2023-04-06T17:03:51.478Z,48.41
2023-04-06T17:04:55.465Z,48.77
2023-04-06T17:05:57.770Z,48.55
2023-04-06T17:07:00.276Z,48.52
2023-04-06T17:09:06.764Z,48.84
2023-04-06T17:10:09.081Z,49.45
2023-04-06T17:11:12.499Z,48.96
2023-04-06T17:12:14.882Z,49.02
2023-04-06T17:13:17.325Z,49.37
2023-04-06T17:14:19.746Z,49.80
2023-04-06T17:15:23.778Z,50.16
2023-04-06T17:16:28.550Z,50.10
2023-04-06T17:17:28.681Z,50.20
2023-04-06T17:18:31.136Z,50.22
2023-04-06T17:19:35.148Z,50.76
2023-04-06T17:20:37.479Z,50.87
2023-04-06T17:21:39.928Z,50.96
2023-04-06T17:22:42.392Z,51.17
2023-04-06T17:23:44.875Z,51.48
2023-04-06T17:24:48.928Z,51.64
2023-04-06T17:25:51.204Z,51.82
2023-04-06T17:26:55.242Z,52.00
2023-04-06T17:27:59.115Z,52.20
2023-04-06T17:29:01.398Z,52.49
2023-04-06T17:30:05.589Z,52.78
2023-04-06T17:31:09.313Z,53.36
2023-04-06T17:32:11.565Z,54.01
2023-04-06T17:33:15.644Z,54.29
2023-04-06T17:34:18.043Z,54.19
2023-04-06T17:35:20.422Z,54.22
2023-04-06T17:36:22.938Z,54.44
2023-04-06T17:37:26.892Z,54.94
2023-04-06T17:38:29.209Z,54.89
2023-04-06T17:39:33.270Z,54.61
2023-04-06T17:40:37.179Z,54.25
2023-04-06T17:41:39.580Z,54.63
2023-04-06T17:42:42.008Z,55.14
2023-04-06T17:43:46.200Z,55.71
2023-04-06T17:44:51.441Z,56.27
2023-04-06T17:45:52.468Z,56.91
2023-04-06T17:46:54.831Z,57.16
2023-04-06T17:47:58.951Z,57.52
2023-04-06T17:49:01.242Z,57.70
2023-04-06T17:50:05.262Z,58.04
2023-04-06T17:51:09.229Z,58.34
2023-04-06T17:52:11.536Z,58.37
2023-04-06T17:53:13.969Z,59.04
2023-04-06T17:54:16.422Z,59.52
2023-04-06T17:55:18.896Z,59.93
2023-04-06T17:56:22.883Z,60.64
2023-04-06T17:57:26.812Z,61.53
2023-04-06T17:58:29.118Z,61.61
2023-04-06T17:59:31.557Z,62.18
2023-04-06T18:00:35.597Z,62.45
2023-04-06T18:01:37.947Z,62.72
2023-04-06T18:02:40.249Z,63.74
2023-04-06T18:03:44.245Z,64.24
2023-04-06T18:04:48.262Z,64.63
2023-04-06T18:05:52.083Z,65.09
2023-04-06T18:06:55.348Z,65.76
2023-04-06T18:07:57.695Z,66.46
2023-04-06T18:09:00.134Z,66.90
2023-04-06T18:10:04.155Z,67.56
2023-04-06T18:19:34.578Z,73.75
2023-04-06T18:20:38.626Z,74.09
2023-04-06T18:21:43.584Z,74.36
2023-04-06T18:31:13.510Z,79.70
2023-04-06T18:32:17.494Z,80.21
2023-04-06T18:33:20.033Z,80.05
2023-04-06T18:34:22.429Z,80.41
2023-04-06T18:35:24.791Z,80.26
2023-04-06T18:44:57.155Z,84.86
2023-04-06T18:54:30.638Z,88.30
2023-04-06T19:04:06.136Z,90.81
2023-04-06T19:05:08.347Z,90.90
2023-04-06T19:14:42.874Z,92.85
2023-04-06T19:24:14.893Z,94.20
2023-04-06T19:33:48.785Z,95.20
2023-04-06T19:43:22.923Z,97.20
2023-04-06T19:52:56.500Z,96.83
2023-04-06T19:53:58.953Z,96.92
2023-04-06T20:03:32.504Z,98.51
2023-04-06T20:13:07.686Z,100.00
2023-04-06T20:22:40.570Z,100.00
2023-04-06T20:32:13.411Z,100.00
2023-04-06T20:41:48.666Z,100.00
2023-04-06T20:51:20.387Z,100.00
2023-04-06T21:00:55.785Z,100.00
2023-04-06T21:10:28.007Z,100.00
2023-04-06T21:20:03.224Z,100.00
2023-04-06T21:29:36.724Z,100.00
2023-04-06T21:39:08.720Z,100.00
2023-04-06T21:48:42.549Z,100.00
2023-04-06T21:58:16.629Z,100.00
2023-04-06T22:07:51.884Z,100.00
2023-04-06T22:17:23.923Z,100.00
2023-04-06T22:26:57.287Z,100.00
2023-04-06T22:36:31.446Z,100.00
2023-04-06T22:46:05.696Z,100.00
2023-04-06T22:55:39.765Z,100.00
2023-04-06T23:05:16.230Z,100.00
2023-04-06T23:14:49.060Z,100.00
2023-04-06T23:24:23.148Z,100.00
2023-04-06T23:33:54.965Z,100.00
2023-04-06T23:43:28.712Z,100.00
2023-04-06T23:53:03.174Z,100.00
